Time;durP1;ratioP1;P1;durP2;ratioP2;P2;SDS_P1;SDS_P2;PMS_P1;PMS_P2;Temp;Humidity;BMP_temperature;BMP_pressure;BME280_temperature;BME280_humidity;BME280_pressure;Samples;Min_cycle;Max_cycle;Signal;HPM_P1;HPM_P2
2022/12/06 00:00:48;;;;;;;14.60;7.80;;;6.10;99.90;;;;;;5010290;28;20485;-60
2022/12/06 00:03:14;;;;;;;32.77;13.33;;;6.10;99.90;;;;;;5008002;28;20473;-60
2022/12/06 00:05:42;;;;;;;16.00;6.47;;;6.10;99.90;;;;;;5018265;28;20488;-60
2022/12/06 00:08:09;;;;;;;11.13;7.20;;;6.20;99.90;;;;;;5017460;28;20471;-60
2022/12/06 00:10:36;;;;;;;13.47;5.10;;;6.20;99.90;;;;;;5016379;28;20484;-60
2022/12/06 00:13:04;;;;;;;10.27;6.43;;;6.20;99.90;;;;;;5015579;28;20488;-60
2022/12/06 00:15:34;;;;;;;15.43;8.57;;;6.20;99.90;;;;;;5020953;28;21142;-59
2022/12/06 00:18:01;;;;;;;14.33;5.70;;;6.30;99.90;;;;;;5014669;28;20813;-60
2022/12/06 00:20:28;;;;;;;13.23;7.80;;;6.30;99.90;;;;;;5016122;28;20481;-60
2022/12/06 00:22:57;;;;;;;14.80;8.40;;;6.20;99.90;;;;;;5016640;28;20469;-60
2022/12/06 00:25:24;;;;;;;20.77;8.70;;;6.20;99.90;;;;;;5017905;28;21078;-59
2022/12/06 00:27:51;;;;;;;14.30;8.00;;;6.20;99.90;;;;;;5028192;28;20480;-59
2022/12/06 00:30:18;;;;;;;27.30;12.93;;;6.20;99.90;;;;;;5021455;28;21043;-59
2022/12/06 00:32:45;;;;;;;15.57;6.83;;;6.20;99.90;;;;;;5009438;28;20554;-59
2022/12/06 00:35:11;;;;;;;15.03;9.07;;;6.20;99.90;;;;;;5012517;28;20481;-59
2022/12/06 00:37:38;;;;;;;9.57;6.27;;;6.20;99.90;;;;;;5012321;28;20492;-59
2022/12/06 00:40:08;;;;;;;18.07;7.33;;;6.20;99.90;;;;;;5017715;28;20997;-59
2022/12/06 00:42:35;;;;;;;12.70;7.10;;;6.20;99.90;;;;;;5011780;28;20470;-59
2022/12/06 00:45:02;;;;;;;10.93;7.13;;;;;;;;;;5026134;28;20483;-59
2022/12/06 00:47:28;;;;;;;18.53;9.70;;;6.40;99.90;;;;;;5014983;28;20473;-59
2022/12/06 00:49:55;;;;;;;16.80;9.70;;;6.40;99.90;;;;;;5015099;28;21048;-59
2022/12/06 00:52:22;;;;;;;20.90;11.47;;;6.40;99.90;;;;;;5016061;28;21173;-59
2022/12/06 00:54:49;;;;;;;14.70;8.30;;;6.40;99.90;;;;;;5019732;28;20481;-60
2022/12/06 00:57:17;;;;;;;25.83;13.57;;;6.50;99.90;;;;;;5005420;28;20477;-60
2022/12/06 00:59:44;;;;;;;10.50;7.07;;;6.50;99.90;;;;;;5008302;28;20871;-60
2022/12/06 01:02:11;;;;;;;21.67;10.33;;;6.50;99.90;;;;;;5015942;28;21012;-60
2022/12/06 01:04:38;;;;;;;9.63;5.90;;;6.50;99.90;;;;;;5024264;28;20702;-60
2022/12/06 01:07:05;;;;;;;10.50;6.77;;;;;;;;;;5036623;28;20499;-60
2022/12/06 01:09:32;;;;;;;15.37;8.00;;;6.60;99.90;;;;;;5033849;28;20478;-60
2022/12/06 01:11:59;;;;;;;16.00;9.23;;;6.60;99.90;;;;;;5047816;28;20480;-59
2022/12/06 01:14:27;;;;;;;22.80;10.87;;;6.60;99.90;;;;;;5029803;28;20821;-59
2022/12/06 01:16:53;;;;;;;18.77;10.00;;;6.60;99.90;;;;;;5012843;28;20481;-59
2022/12/06 01:19:20;;;;;;;27.00;12.93;;;6.60;99.90;;;;;;5012198;28;20491;-59
2022/12/06 01:21:48;;;;;;;15.77;8.17;;;6.60;99.90;;;;;;5017960;28;20481;-59
2022/12/06 01:24:15;;;;;;;25.53;13.13;;;6.60;99.90;;;;;;5013648;28;20486;-59
2022/12/06 01:26:42;;;;;;;15.67;8.00;;;6.50;99.90;;;;;;5011172;28;20489;-59
2022/12/06 01:29:09;;;;;;;14.83;8.27;;;6.60;99.90;;;;;;5013606;28;20469;-59
2022/12/06 01:31:37;;;;;;;19.17;8.13;;;6.60;99.90;;;;;;5011408;28;20513;-59
2022/12/06 01:34:04;;;;;;;11.90;7.77;;;6.70;99.90;;;;;;5012501;28;20496;-59
2022/12/06 01:36:31;;;;;;;19.73;9.80;;;6.70;99.90;;;;;;5038675;28;20494;-59
2022/12/06 01:38:59;;;;;;;16.57;8.57;;;6.70;99.90;;;;;;5017863;28;20480;-59
2022/12/06 01:41:27;;;;;;;17.63;8.20;;;6.80;99.90;;;;;;5021064;28;21330;-59
2022/12/06 01:43:55;;;;;;;16.63;8.57;;;6.70;99.90;;;;;;5014117;28;20469;-59
2022/12/06 01:46:29;;;;;;;25.67;10.37;;;6.70;99.90;;;;;;5032867;28;20499;-59
2022/12/06 01:49:05;;;;;;;12.40;6.47;;;6.70;99.90;;;;;;5036052;28;20488;-59
2022/12/06 01:51:32;;;;;;;11.00;5.83;;;6.70;99.90;;;;;;5022723;28;20544;-59
2022/12/06 01:54:01;;;;;;;13.60;7.40;;;6.60;99.90;;;;;;5028987;28;20473;-59
2022/12/06 01:56:28;;;;;;;14.70;7.93;;;6.60;99.90;;;;;;5036730;28;20499;-59
2022/12/06 01:58:57;;;;;;;16.17;7.33;;;6.50;99.90;;;;;;5035101;28;20489;-59
2022/12/06 02:01:26;;;;;;;24.67;10.10;;;6.40;99.90;;;;;;5036417;28;20531;-59
2022/12/06 02:03:55;;;;;;;12.37;7.03;;;6.40;99.90;;;;;;5033940;28;20894;-59
2022/12/06 02:06:23;;;;;;;22.63;10.77;;;6.40;99.90;;;;;;5033652;28;20504;-59
2022/12/06 02:08:50;;;;;;;19.97;8.77;;;6.50;99.90;;;;;;5034450;28;20922;-59
2022/12/06 02:11:17;;;;;;;29.13;7.13;;;6.40;99.90;;;;;;5032813;28;20486;-59
2022/12/06 02:13:44;;;;;;;9.90;5.23;;;6.40;99.90;;;;;;5016357;28;21117;-59
2022/12/06 02:16:22;;;;;;;18.97;9.13;;;6.40;99.90;;;;;;5015946;28;20489;-59
2022/12/06 02:18:55;;;;;;;17.97;7.83;;;6.30;99.90;;;;;;5017858;28;20988;-59
2022/12/06 02:21:33;;;;;;;19.83;9.83;;;6.20;99.90;;;;;;5016235;28;20489;-59
2022/12/06 02:24:29;;;;;;;12.80;5.30;;;6.30;99.90;;;;;;5007977;28;20502;-59
2022/12/06 02:27:11;;;;;;;16.93;7.10;;;6.30;99.90;;;;;;5032714;28;20473;-59
2022/12/06 02:30:06;;;;;;;12.87;6.83;;;6.30;99.90;;;;;;5033916;28;20484;-59
2022/12/06 02:32:41;;;;;;;12.07;6.00;;;6.30;99.90;;;;;;5019198;28;20481;-59
2022/12/06 02:35:13;;;;;;;14.40;7.17;;;6.40;99.90;;;;;;5035782;28;20469;-59
2022/12/06 02:37:47;;;;;;;15.00;5.90;;;6.40;99.90;;;;;;5012985;28;20628;-60
2022/12/06 02:40:18;;;;;;;22.13;9.40;;;6.40;99.90;;;;;;5017971;28;20490;-59
2022/12/06 02:42:51;;;;;;;11.83;7.23;;;6.40;99.90;;;;;;5028583;28;20902;-60
2022/12/06 02:45:21;;;;;;;26.80;12.43;;;6.40;99.90;;;;;;5012504;28;20525;-60
2022/12/06 02:47:51;;;;;;;15.67;7.80;;;6.40;99.90;;;;;;5012453;28;20872;-60
2022/12/06 02:50:21;;;;;;;28.37;11.53;;;6.30;99.90;;;;;;5020030;28;20496;-60
2022/12/06 02:52:51;;;;;;;12.67;7.00;;;6.20;99.90;;;;;;5013161;28;20493;-60
2022/12/06 02:55:19;;;;;;;27.73;11.63;;;6.20;99.90;;;;;;5018280;28;20478;-60
2022/12/06 02:57:49;;;;;;;16.73;7.73;;;6.20;99.90;;;;;;5011682;28;20496;-59
2022/12/06 03:00:41;;;;;;;26.20;11.23;;;6.20;99.90;;;;;;5016763;28;20473;-60
2022/12/06 03:03:49;;;;;;;14.07;6.97;;;6.10;99.90;;;;;;5006822;28;21041;-60
2022/12/06 03:06:47;;;;;;;26.30;11.93;;;6.10;99.90;;;;;;5009459;28;20831;-60
2022/12/06 03:09:28;;;;;;;28.67;12.33;;;6.00;99.90;;;;;;5034935;28;20488;-60
2022/12/06 03:12:01;;;;;;;72.27;27.30;;;6.00;99.90;;;;;;5029524;28;20495;-59
2022/12/06 03:14:34;;;;;;;12.70;6.90;;;6.00;99.90;;;;;;5011047;28;20590;-59
2022/12/06 03:17:08;;;;;;;15.20;7.70;;;6.10;99.90;;;;;;5013809;28;20492;-60
2022/12/06 03:19:39;;;;;;;14.50;5.03;;;6.10;99.90;;;;;;5021138;28;20488;-59
2022/12/06 03:22:11;;;;;;;15.43;7.20;;;6.10;99.90;;;;;;5029169;28;20564;-58
2022/12/06 03:24:42;;;;;;;16.10;6.77;;;6.10;99.90;;;;;;5035833;28;20483;-59
2022/12/06 03:27:13;;;;;;;17.07;7.73;;;6.10;99.90;;;;;;5032814;28;20511;-58
2022/12/06 03:29:43;;;;;;;14.17;6.07;;;6.10;99.90;;;;;;5032097;28;20480;-59
2022/12/06 03:32:13;;;;;;;16.30;6.27;;;6.00;99.90;;;;;;5033522;28;20863;-59
2022/12/06 03:34:43;;;;;;;10.40;5.77;;;5.90;99.90;;;;;;5018663;28;20477;-59
2022/12/06 03:37:14;;;;;;;14.57;7.10;;;5.90;99.90;;;;;;5024626;28;20852;-59
2022/12/06 03:39:46;;;;;;;10.77;5.77;;;5.90;99.90;;;;;;5020386;28;20492;-59
2022/12/06 03:42:13;;;;;;;19.63;9.07;;;5.90;99.90;;;;;;5016845;28;20841;-59
2022/12/06 03:44:40;;;;;;;17.07;5.57;;;5.90;99.90;;;;;;5026452;28;20824;-58
2022/12/06 03:47:11;;;;;;;14.43;7.53;;;5.90;99.90;;;;;;5021788;28;20492;-59
2022/12/06 03:49:42;;;;;;;12.87;6.60;;;6.00;99.90;;;;;;5014804;28;20643;-59
2022/12/06 03:52:10;;;;;;;17.27;6.47;;;6.00;99.90;;;;;;5022057;28;20469;-59
2022/12/06 03:54:38;;;;;;;12.50;6.40;;;6.00;99.90;;;;;;5016949;28;20481;-59
2022/12/06 03:57:05;;;;;;;15.30;6.90;;;6.00;99.90;;;;;;5015893;28;20485;-59
2022/12/06 03:59:32;;;;;;;19.80;7.57;;;6.00;99.90;;;;;;5016348;28;20496;-59
2022/12/06 04:01:59;;;;;;;13.27;6.37;;;6.10;99.90;;;;;;5016729;28;20981;-60
2022/12/06 04:04:25;;;;;;;15.57;7.57;;;6.00;99.90;;;;;;5013669;28;20501;-59
2022/12/06 04:06:52;;;;;;;16.43;6.27;;;6.10;99.90;;;;;;5015829;28;20981;-59
2022/12/06 04:12:59;;;;;;;18.10;6.33;;;6.10;99.90;;;;;;5020474;28;20478;-59
2022/12/06 04:14:52;;;;;;;12.57;7.40;;;6.00;99.90;;;;;;5009983;28;21050;-59
2022/12/06 04:20:04;;;;;;;11.47;5.77;;;6.00;99.90;;;;;;5033532;28;21015;-59
2022/12/06 04:25:17;;;;;;;23.27;10.43;;;5.80;99.90;;;;;;5040175;28;20529;-59
2022/12/06 04:38:41;;;;;;;16.60;9.23;;;5.60;99.90;;;;;;5028344;28;20879;-59
2022/12/06 04:41:10;;;;;;;18.77;9.80;;;5.40;99.90;;;;;;5017219;28;20555;-59
2022/12/06 04:43:42;;;;;;;15.00;6.67;;;5.10;99.90;;;;;;5022850;28;20489;-59
2022/12/06 04:46:08;;;;;;;17.43;8.67;;;5.20;99.90;;;;;;5020953;28;21109;-59
2022/12/06 04:48:35;;;;;;;25.10;9.77;;;5.40;99.90;;;;;;5032397;28;20484;-59
2022/12/06 04:51:02;;;;;;;18.40;7.67;;;5.60;99.90;;;;;;5030352;28;20472;-59
2022/12/06 04:53:29;;;;;;;16.50;8.50;;;5.60;99.90;;;;;;5036322;28;20523;-59
2022/12/06 04:55:55;;;;;;;21.50;10.83;;;5.60;99.90;;;;;;5036074;28;20968;-59
2022/12/06 04:58:24;;;;;;;18.00;8.03;;;5.70;99.90;;;;;;5029011;28;20490;-59
2022/12/06 05:00:50;;;;;;;17.97;9.10;;;5.70;99.90;;;;;;5036043;28;20483;-59
2022/12/06 05:03:17;;;;;;;28.40;14.23;;;5.70;99.90;;;;;;5012342;28;20500;-59
2022/12/06 05:05:44;;;;;;;23.90;9.90;;;5.70;99.90;;;;;;5014654;28;20528;-59
2022/12/06 05:08:11;;;;;;;17.77;10.07;;;5.70;99.90;;;;;;5014964;28;20477;-59
2022/12/06 05:10:38;;;;;;;16.00;9.40;;;5.70;99.90;;;;;;5011462;28;20880;-59
2022/12/06 05:13:05;;;;;;;15.40;8.43;;;5.60;99.90;;;;;;5015740;28;20477;-59
2022/12/06 05:15:33;;;;;;;19.87;10.17;;;5.50;99.90;;;;;;5015722;28;20945;-59
2022/12/06 05:18:00;;;;;;;17.37;9.33;;;5.60;99.90;;;;;;5019437;28;20489;-59
2022/12/06 05:20:27;;;;;;;19.97;8.53;;;5.70;99.90;;;;;;5023553;28;20482;-59
2022/12/06 05:22:54;;;;;;;19.73;9.30;;;5.80;99.90;;;;;;5029115;28;20476;-59
2022/12/06 05:25:21;;;;;;;39.43;13.03;;;5.80;99.90;;;;;;5017714;28;20500;-59
2022/12/06 05:27:47;;;;;;;16.40;8.57;;;5.80;99.90;;;;;;5005892;28;20482;-59
2022/12/06 05:30:14;;;;;;;31.73;13.90;;;5.70;99.90;;;;;;5006423;28;20489;-59
2022/12/06 05:32:42;;;;;;;15.27;8.23;;;5.70;99.90;;;;;;5011485;28;20499;-59
2022/12/06 05:35:09;;;;;;;18.87;10.27;;;5.60;99.90;;;;;;5024146;28;20473;-59
2022/12/06 05:37:36;;;;;;;21.40;9.87;;;5.50;99.90;;;;;;5015048;28;20473;-59
2022/12/06 05:40:03;;;;;;;20.13;10.07;;;5.60;99.90;;;;;;5015743;28;20469;-59
2022/12/06 05:42:30;;;;;;;24.63;10.77;;;5.60;99.90;;;;;;5015298;28;20487;-59
2022/12/06 05:44:57;;;;;;;18.83;10.07;;;5.70;99.90;;;;;;5026680;28;20488;-59
2022/12/06 05:47:23;;;;;;;30.50;13.83;;;5.80;99.90;;;;;;5013790;28;20489;-59
2022/12/06 05:49:51;;;;;;;26.30;11.60;;;5.90;99.90;;;;;;5015388;28;20493;-60
2022/12/06 05:52:18;;;;;;;32.07;14.00;;;5.90;99.90;;;;;;5018666;28;20493;-60
2022/12/06 05:54:45;;;;;;;15.20;7.93;;;6.00;99.90;;;;;;5015178;28;20488;-60
2022/12/06 05:57:11;;;;;;;25.30;10.97;;;5.90;99.90;;;;;;5010344;28;20497;-60
2022/12/06 05:59:38;;;;;;;18.30;9.37;;;6.00;99.90;;;;;;5012641;28;20509;-60
2022/12/06 06:02:05;;;;;;;21.57;10.30;;;6.00;99.90;;;;;;5012822;28;20882;-59
2022/12/06 06:04:32;;;;;;;28.07;11.77;;;6.00;99.90;;;;;;5014227;28;20881;-60
2022/12/06 06:07:00;;;;;;;23.20;12.23;;;6.00;99.90;;;;;;5024259;28;20484;-60
2022/12/06 06:09:27;;;;;;;25.53;11.47;;;6.10;99.90;;;;;;5017514;28;20480;-60
2022/12/06 06:11:54;;;;;;;14.57;6.67;;;6.10;99.90;;;;;;5018864;28;20497;-60
2022/12/06 06:14:21;;;;;;;32.07;13.50;;;6.10;99.90;;;;;;5016158;28;20484;-60
2022/12/06 06:16:48;;;;;;;18.67;9.73;;;5.90;99.90;;;;;;5014102;28;20507;-60
2022/12/06 06:19:15;;;;;;;42.47;15.17;;;5.90;99.90;;;;;;5016083;28;20668;-60
2022/12/06 06:21:41;;;;;;;19.97;9.63;;;6.00;99.90;;;;;;5016522;28;20490;-60
2022/12/06 06:24:10;;;;;;;26.77;11.67;;;6.00;99.90;;;;;;5014673;28;20481;-60
2022/12/06 06:26:36;;;;;;;20.93;10.10;;;6.00;99.90;;;;;;5014544;28;20473;-60
2022/12/06 06:29:03;;;;;;;26.67;11.50;;;6.00;99.90;;;;;;5017283;28;20480;-60
2022/12/06 06:31:30;;;;;;;29.00;13.00;;;5.90;99.90;;;;;;5017191;28;20509;-60
2022/12/06 06:33:57;;;;;;;46.90;18.77;;;5.90;99.90;;;;;;5011668;28;20510;-60
2022/12/06 06:36:24;;;;;;;39.80;16.33;;;5.90;99.90;;;;;;5010275;28;20536;-60
2022/12/06 06:38:50;;;;;;;33.27;14.57;;;5.90;99.90;;;;;;5009437;28;20973;-60
2022/12/06 06:41:18;;;;;;;38.77;16.03;;;5.70;99.90;;;;;;5015077;28;20484;-60
2022/12/06 06:43:45;;;;;;;26.00;13.20;;;5.70;99.90;;;;;;5028525;28;20973;-60
2022/12/06 06:46:12;;;;;;;33.83;15.57;;;5.80;99.90;;;;;;5013602;28;20473;-60
2022/12/06 06:48:39;;;;;;;23.23;10.07;;;5.80;99.90;;;;;;5015822;28;20485;-60
2022/12/06 06:51:08;;;;;;;50.13;25.17;;;5.80;99.90;;;;;;5018389;28;20480;-60
2022/12/06 06:53:36;;;;;;;27.47;12.23;;;5.80;99.90;;;;;;5014338;28;20585;-60
2022/12/06 06:56:03;;;;;;;102.30;34.43;;;5.70;99.90;;;;;;5019928;28;20480;-60
2022/12/06 06:58:31;;;;;;;49.30;17.00;;;5.70;99.90;;;;;;5015772;28;21068;-60
2022/12/06 07:00:59;;;;;;;31.93;13.47;;;5.70;99.90;;;;;;5013919;28;20477;-60
2022/12/06 07:03:27;;;;;;;33.70;16.30;;;5.80;99.90;;;;;;5010062;28;20488;-59
2022/12/06 07:05:56;;;;;;;31.40;15.70;;;5.80;99.90;;;;;;5008197;28;20492;-60
2022/12/06 07:08:23;;;;;;;32.00;14.60;;;5.80;99.90;;;;;;5010736;28;20495;-60
2022/12/06 07:10:50;;;;;;;32.33;13.47;;;5.80;99.90;;;;;;5019902;28;20999;-60
2022/12/06 07:13:19;;;;;;;37.37;16.47;;;5.80;99.90;;;;;;5008724;28;20833;-60
2022/12/06 07:15:47;;;;;;;19.97;9.10;;;5.80;99.90;;;;;;5032485;28;20484;-60
2022/12/06 07:18:15;;;;;;;27.53;12.70;;;5.80;99.90;;;;;;5032593;28;20485;-60
2022/12/06 07:20:42;;;;;;;28.13;13.20;;;5.80;99.90;;;;;;5018493;28;20566;-60
2022/12/06 07:23:09;;;;;;;29.23;11.17;;;5.90;99.90;;;;;;5037819;28;20487;-59
2022/12/06 07:25:36;;;;;;;23.80;10.10;;;5.90;99.90;;;;;;5030776;28;20620;-60
2022/12/06 07:28:03;;;;;;;21.00;10.43;;;5.80;99.90;;;;;;5018919;28;20489;-59
2022/12/06 07:30:30;;;;;;;25.87;11.27;;;5.90;99.90;;;;;;5026077;28;20508;-60
2022/12/06 07:32:58;;;;;;;23.50;11.00;;;5.90;99.90;;;;;;5023002;28;20496;-60
2022/12/06 07:35:25;;;;;;;28.93;13.27;;;5.90;99.90;;;;;;5027739;28;20517;-59
2022/12/06 07:37:52;;;;;;;29.30;11.67;;;5.90;99.90;;;;;;5017531;28;20488;-59
2022/12/06 07:40:19;;;;;;;36.33;14.70;;;5.90;99.90;;;;;;5030864;28;20686;-59
2022/12/06 07:45:30;;;;;;;21.30;9.97;;;5.90;99.90;;;;;;5036947;28;20602;-59
2022/12/06 07:47:58;;;;;;;21.90;10.13;;;5.90;99.90;;;;;;5038791;28;20972;-59
2022/12/06 07:50:25;;;;;;;20.87;11.60;;;5.90;99.90;;;;;;5039363;28;20480;-59
2022/12/06 07:52:52;;;;;;;23.77;9.50;;;6.00;99.90;;;;;;5038769;28;20484;-59
2022/12/06 07:55:19;;;;;;;29.60;13.67;;;6.00;99.90;;;;;;5037065;28;20468;-60
2022/12/06 07:57:45;;;;;;;24.30;10.37;;;6.00;99.90;;;;;;5038101;28;20499;-60
2022/12/06 08:00:15;;;;;;;27.03;11.17;;;5.80;99.90;;;;;;5024888;28;20476;-60
2022/12/06 08:02:43;;;;;;;18.87;10.30;;;5.80;99.90;;;;;;5036188;28;20495;-60
2022/12/06 08:05:11;;;;;;;28.67;10.63;;;5.90;99.90;;;;;;5037364;28;20475;-59
2022/12/06 08:07:38;;;;;;;20.40;10.33;;;5.90;99.90;;;;;;5040236;28;20503;-60
2022/12/06 08:10:06;;;;;;;22.27;11.23;;;5.90;99.90;;;;;;5040080;28;20488;-60
2022/12/06 08:12:33;;;;;;;26.30;10.50;;;4.00;99.90;;;;;;5024384;28;20495;-60
2022/12/06 08:15:00;;;;;;;23.83;11.80;;;5.90;99.90;;;;;;5031724;28;21143;-60
2022/12/06 08:17:27;;;;;;;32.33;12.70;;;5.90;99.90;;;;;;5017902;28;21020;-60
2022/12/06 08:19:54;;;;;;;30.60;11.17;;;5.90;99.90;;;;;;5018987;28;20498;-60
2022/12/06 08:22:22;;;;;;;40.03;16.80;;;5.90;99.90;;;;;;5029230;28;20491;-60
2022/12/06 08:24:49;;;;;;;20.67;10.17;;;5.90;99.90;;;;;;5043054;28;20561;-59
2022/12/06 08:27:15;;;;;;;43.53;14.93;;;5.90;99.90;;;;;;5042255;28;20480;-59
2022/12/06 08:29:44;;;;;;;19.27;10.30;;;5.90;99.90;;;;;;5036425;28;20994;-60
2022/12/06 08:32:10;;;;;;;23.00;11.47;;;5.90;99.90;;;;;;5037626;28;20777;-60
2022/12/06 08:34:37;;;;;;;22.87;9.47;;;5.80;99.90;;;;;;5037861;28;20488;-60
2022/12/06 08:37:04;;;;;;;20.97;10.67;;;5.80;99.90;;;;;;5035137;28;20853;-60
2022/12/06 08:39:32;;;;;;;21.83;10.00;;;5.90;99.90;;;;;;5035496;28;20495;-59
2022/12/06 08:41:59;;;;;;;23.90;10.20;;;6.00;99.90;;;;;;5037467;28;20476;-60
2022/12/06 08:44:26;;;;;;;28.13;12.33;;;6.00;99.90;;;;;;5036724;28;20539;-59
2022/12/06 08:46:54;;;;;;;21.53;11.13;;;5.90;99.90;;;;;;5035682;28;20481;-59
2022/12/06 08:49:22;;;;;;;37.80;14.90;;;6.00;99.90;;;;;;5037796;28;20472;-59
2022/12/06 08:51:48;;;;;;;21.07;10.80;;;5.90;99.90;;;;;;5010684;28;20480;-59
2022/12/06 08:54:17;;;;;;;33.90;15.27;;;5.90;99.90;;;;;;5031533;28;20499;-59
2022/12/06 08:56:46;;;;;;;25.70;9.80;;;6.00;99.90;;;;;;5030920;28;20488;-60
2022/12/06 08:59:13;;;;;;;25.67;12.70;;;6.00;99.90;;;;;;5033292;28;20496;-59
2022/12/06 09:01:40;;;;;;;19.30;10.40;;;6.00;99.90;;;;;;5034599;28;21540;-60
2022/12/06 09:04:08;;;;;;;20.90;10.80;;;6.00;99.90;;;;;;5034250;28;20488;-59
2022/12/06 09:06:38;;;;;;;20.70;9.73;;;6.00;99.90;;;;;;5033976;28;20979;-60
2022/12/06 09:09:05;;;;;;;25.10;10.47;;;5.90;99.90;;;;;;5036767;28;20563;-60
2022/12/06 09:11:32;;;;;;;20.33;10.67;;;5.80;99.90;;;;;;5035274;28;20817;-60
2022/12/06 09:14:00;;;;;;;20.43;9.70;;;5.80;99.90;;;;;;5035797;28;20744;-60
2022/12/06 09:16:27;;;;;;;29.37;13.87;;;5.90;99.90;;;;;;5029776;28;20495;-59
2022/12/06 09:18:54;;;;;;;21.07;10.60;;;5.90;99.90;;;;;;5013972;28;20477;-60
2022/12/06 09:21:24;;;;;;;23.23;11.60;;;5.90;99.90;;;;;;5036475;28;20499;-59
2022/12/06 09:23:55;;;;;;;17.70;10.30;;;6.00;99.90;;;;;;5038613;28;20569;-59
2022/12/06 09:26:29;;;;;;;30.13;13.53;;;6.00;99.90;;;;;;5038341;28;21023;-60
2022/12/06 09:28:57;;;;;;;22.73;10.87;;;5.90;99.90;;;;;;5016726;28;20473;-60
2022/12/06 09:31:25;;;;;;;25.47;11.20;;;5.90;99.90;;;;;;5021006;28;20472;-60
2022/12/06 09:33:52;;;;;;;16.60;9.83;;;6.00;99.90;;;;;;5036751;28;20492;-60
2022/12/06 09:36:20;;;;;;;28.13;15.00;;;;;;;;;;5036805;28;20881;-59
2022/12/06 09:38:51;;;;;;;21.23;10.07;;;6.10;99.90;;;;;;5028450;28;20483;-59
2022/12/06 09:41:35;;;;;;;34.23;15.83;;;6.20;99.90;;;;;;5017131;28;20477;-60
2022/12/06 09:44:23;;;;;;;23.60;10.27;;;6.10;99.90;;;;;;5016318;28;20962;-59
2022/12/06 09:47:03;;;;;;;18.93;10.33;;;6.10;99.90;;;;;;5026962;28;20485;-60
2022/12/06 09:49:31;;;;;;;19.90;10.73;;;6.20;99.90;;;;;;5014992;28;20907;-59
2022/12/06 09:52:33;;;;;;;23.30;10.87;;;6.10;99.90;;;;;;5018166;28;20843;-60
2022/12/06 09:55:15;;;;;;;17.10;10.03;;;6.20;99.90;;;;;;5029548;28;21391;-59
2022/12/06 09:57:48;;;;;;;15.37;9.77;;;6.20;99.90;;;;;;5020310;28;20484;-60
2022/12/06 10:00:19;;;;;;;28.57;15.10;;;6.20;99.90;;;;;;5023285;28;20484;-59
2022/12/06 10:03:21;;;;;;;24.57;9.40;;;6.10;99.90;;;;;;5033090;28;20992;-59
2022/12/06 10:05:59;;;;;;;21.17;9.60;;;6.10;99.90;;;;;;5025940;28;20472;-59
2022/12/06 10:08:42;;;;;;;20.27;12.13;;;6.20;99.90;;;;;;5033877;28;20472;-59
2022/12/06 10:11:22;;;;;;;34.87;10.17;;;6.10;99.90;;;;;;5025571;28;20548;-59
2022/12/06 10:14:00;;;;;;;18.53;10.30;;;6.10;99.90;;;;;;5033760;28;20499;-60
2022/12/06 10:16:44;;;;;;;23.23;11.80;;;6.10;99.90;;;;;;5031527;28;20480;-60
2022/12/06 10:19:24;;;;;;;23.53;14.27;;;6.20;99.90;;;;;;5032044;28;20472;-60
2022/12/06 10:22:01;;;;;;;21.23;10.13;;;6.10;99.90;;;;;;5036502;28;20481;-60
2022/12/06 10:24:38;;;;;;;30.90;11.73;;;;;;;;;;5032723;28;20988;-59
2022/12/06 10:27:09;;;;;;;20.87;11.27;;;6.10;99.90;;;;;;5008212;28;20760;-60
2022/12/06 10:29:49;;;;;;;22.03;10.93;;;6.20;99.90;;;;;;5019967;28;20483;-59
2022/12/06 10:32:18;;;;;;;32.80;14.20;;;6.10;99.90;;;;;;5026180;28;20487;-59
2022/12/06 10:34:55;;;;;;;19.63;10.40;;;6.10;99.90;;;;;;5032599;28;20480;-59
2022/12/06 10:37:34;;;;;;;26.23;13.20;;;6.10;99.90;;;;;;5035678;28;20581;-60
2022/12/06 10:40:06;;;;;;;20.23;9.90;;;6.00;99.90;;;;;;5031858;28;20484;-59
2022/12/06 10:42:38;;;;;;;21.23;12.17;;;6.10;99.90;;;;;;5034622;28;20483;-59
2022/12/06 10:48:12;;;;;;;29.30;11.87;;;6.30;99.90;;;;;;5029676;28;20483;-59
2022/12/06 10:50:41;;;;;;;18.23;10.10;;;6.30;99.90;;;;;;5021312;28;20482;-59
2022/12/06 10:53:12;;;;;;;35.30;10.67;;;6.30;99.90;;;;;;5014460;28;21056;-59
2022/12/06 10:55:46;;;;;;;21.80;11.33;;;6.30;99.90;;;;;;5006316;28;20485;-59
2022/12/06 10:58:26;;;;;;;29.57;15.93;;;6.20;99.90;;;;;;5021874;28;20468;-59
2022/12/06 11:00:58;;;;;;;19.50;10.20;;;6.20;99.90;;;;;;5029371;28;20476;-59
2022/12/06 11:03:29;;;;;;;28.50;13.90;;;6.20;99.90;;;;;;5050050;28;20480;-59
2022/12/06 11:06:02;;;;;;;22.87;13.20;;;6.20;99.90;;;;;;5037092;28;20495;-59
2022/12/06 11:08:33;;;;;;;23.93;12.27;;;6.20;99.90;;;;;;5035462;28;20484;-59
2022/12/06 11:11:03;;;;;;;31.40;13.20;;;6.20;99.90;;;;;;5031956;28;20507;-59
2022/12/06 11:13:37;;;;;;;26.90;14.37;;;6.30;99.90;;;;;;5036179;28;21078;-59
2022/12/06 11:16:09;;;;;;;32.30;14.17;;;6.30;99.90;;;;;;5036338;28;20488;-59
2022/12/06 11:18:37;;;;;;;20.43;9.77;;;6.30;99.90;;;;;;5016991;28;20476;-59
2022/12/06 11:21:15;;;;;;;23.20;11.93;;;6.40;99.90;;;;;;5031050;28;20480;-59
2022/12/06 11:23:50;;;;;;;31.40;12.83;;;5.20;99.90;;;;;;5027604;28;20863;-58
2022/12/06 11:26:23;;;;;;;36.40;16.43;;;6.50;99.90;;;;;;5025824;28;20492;-58
2022/12/06 11:28:59;;;;;;;39.90;13.80;;;6.40;99.90;;;;;;5026279;28;20468;-59
2022/12/06 11:31:27;;;;;;;36.90;15.10;;;6.50;99.90;;;;;;5020897;28;20485;-59
2022/12/06 11:33:55;;;;;;;24.63;13.50;;;6.50;99.90;;;;;;5014819;28;20485;-60
2022/12/06 11:36:25;;;;;;;31.27;15.37;;;6.60;99.90;;;;;;5024786;28;20476;-59
2022/12/06 11:38:52;;;;;;;25.83;12.70;;;6.70;99.90;;;;;;5025092;28;20512;-59
2022/12/06 11:41:23;;;;;;;33.27;18.67;;;6.70;99.90;;;;;;5011304;28;20496;-59
2022/12/06 11:43:51;;;;;;;25.37;14.27;;;6.80;99.90;;;;;;5014743;28;20483;-59
2022/12/06 11:46:18;;;;;;;31.20;16.43;;;6.90;99.90;;;;;;5028242;28;20839;-59
2022/12/06 11:48:46;;;;;;;24.23;12.10;;;7.10;99.90;;;;;;5035432;28;20480;-59
2022/12/06 11:51:17;;;;;;;24.43;13.63;;;7.10;99.90;;;;;;5020156;28;20486;-59
2022/12/06 11:53:56;;;;;;;22.53;12.70;;;7.10;99.90;;;;;;5014937;28;20491;-59
2022/12/06 11:56:25;;;;;;;25.83;14.80;;;7.20;99.90;;;;;;5025826;28;20485;-59
2022/12/06 11:59:08;;;;;;;25.60;12.30;;;7.10;99.90;;;;;;5028291;28;20571;-59
2022/12/06 12:01:41;;;;;;;21.17;10.93;;;7.10;99.90;;;;;;5025537;28;20481;-60
2022/12/06 12:04:34;;;;;;;24.73;13.93;;;7.20;99.90;;;;;;5029509;28;21139;-60
2022/12/06 12:07:04;;;;;;;24.53;12.47;;;7.20;99.90;;;;;;5032304;28;20488;-59
2022/12/06 12:09:35;;;;;;;22.03;13.10;;;7.10;99.90;;;;;;5036544;28;20921;-59
2022/12/06 12:12:05;;;;;;;25.10;12.40;;;7.10;99.90;;;;;;5027629;28;20905;-59
2022/12/06 12:14:39;;;;;;;26.53;13.37;;;7.00;99.90;;;;;;5018155;28;20473;-59
2022/12/06 12:17:17;;;;;;;46.70;13.00;;;7.00;99.90;;;;;;5012828;28;20525;-59
2022/12/06 12:19:48;;;;;;;22.10;14.07;;;6.90;99.90;;;;;;5017223;28;20475;-59
2022/12/06 12:22:24;;;;;;;42.37;19.33;;;6.90;99.90;;;;;;5018113;28;20478;-59
2022/12/06 12:24:53;;;;;;;30.90;14.80;;;7.00;99.90;;;;;;5019905;28;20498;-59
2022/12/06 12:27:48;;;;;;;34.90;16.13;;;7.00;99.90;;;;;;5034977;28;20966;-60
2022/12/06 12:30:31;;;;;;;41.33;18.33;;;6.90;99.90;;;;;;4971873;28;20483;-59
2022/12/06 12:33:20;;;;;;;28.63;11.97;;;6.90;99.90;;;;;;5010135;28;21052;-59
2022/12/06 12:35:49;;;;;;;22.57;11.57;;;6.90;99.90;;;;;;5023339;28;21684;-60
2022/12/06 12:38:22;;;;;;;38.60;16.50;;;6.90;99.90;;;;;;5012926;28;20485;-59
2022/12/06 12:40:52;;;;;;;30.00;13.60;;;6.90;99.90;;;;;;5017366;28;20595;-59
2022/12/06 12:43:21;;;;;;;39.37;18.10;;;6.90;99.90;;;;;;5021401;28;21027;-59
2022/12/06 12:46:16;;;;;;;30.20;14.57;;;7.00;99.90;;;;;;5032961;28;20872;-60
2022/12/06 12:48:46;;;;;;;28.27;11.00;;;7.10;99.90;;;;;;5018064;28;20631;-59
2022/12/06 12:51:30;;;;;;;37.40;16.40;;;7.10;99.90;;;;;;5017680;28;20961;-59
2022/12/06 12:54:00;;;;;;;40.33;13.53;;;7.10;99.90;;;;;;5016001;28;20972;-59
2022/12/06 12:56:32;;;;;;;45.07;18.30;;;7.10;99.90;;;;;;5008913;28;20476;-59
2022/12/06 12:58:59;;;;;;;27.50;13.60;;;;;;;;;;5028874;28;21032;-59
2022/12/06 13:01:36;;;;;;;30.17;15.27;;;7.10;99.90;;;;;;5019625;28;20477;-59
2022/12/06 13:04:07;;;;;;;37.93;17.70;;;7.10;99.90;;;;;;5020867;28;20528;-59
2022/12/06 13:06:40;;;;;;;27.03;14.27;;;7.00;99.90;;;;;;5019495;28;20970;-59
2022/12/06 13:09:13;;;;;;;33.43;16.63;;;7.00;99.90;;;;;;5014380;28;20484;-60
2022/12/06 13:11:47;;;;;;;32.30;13.63;;;6.90;99.90;;;;;;5008788;28;20489;-59
2022/12/06 13:14:20;;;;;;;43.63;20.53;;;7.00;99.90;;;;;;5028916;28;20485;-59
2022/12/06 13:16:50;;;;;;;25.90;12.63;;;7.00;99.90;;;;;;5016312;28;20490;-59
2022/12/06 13:19:18;;;;;;;40.63;18.60;;;7.00;99.90;;;;;;5016661;28;20477;-59
2022/12/06 13:21:46;;;;;;;26.60;13.60;;;7.00;99.90;;;;;;5017654;28;20477;-59
2022/12/06 13:24:19;;;;;;;36.97;17.40;;;7.00;99.90;;;;;;5017712;28;20488;-59